createdAt,value
2018-01-25T00:01:17.113Z,4.90
2018-01-25T00:03:44.742Z,4.90
2018-01-25T00:06:12.357Z,4.80
2018-01-25T00:08:40.306Z,4.80
2018-01-25T00:11:07.923Z,4.80
2018-01-25T00:13:35.606Z,4.80
2018-01-25T00:16:03.198Z,4.80
2018-01-25T00:18:30.811Z,4.80
2018-01-25T00:20:58.402Z,4.80
2018-01-25T00:23:26.576Z,4.80
2018-01-25T00:25:54.133Z,4.80
2018-01-25T00:28:21.709Z,4.80
2018-01-25T00:30:49.455Z,4.80
2018-01-25T00:33:17.059Z,4.80
2018-01-25T00:35:44.663Z,4.90
2018-01-25T00:38:12.269Z,4.90
2018-01-25T00:40:39.832Z,4.90
2018-01-25T00:43:07.510Z,4.80
2018-01-25T00:45:35.497Z,5.00
2018-01-25T00:48:03.077Z,5.00
2018-01-25T00:50:30.650Z,5.30
2018-01-25T00:52:58.224Z,5.80
2018-01-25T00:55:26.279Z,6.40
2018-01-25T00:57:53.851Z,7.00
2018-01-25T01:00:21.444Z,7.70
2018-01-25T01:02:49.026Z,8.40
2018-01-25T01:05:16.617Z,9.30
2018-01-25T01:07:44.199Z,10.00
2018-01-25T01:10:11.814Z,10.40
2018-01-25T01:12:39.404Z,10.70
2018-01-25T01:15:07.012Z,10.70
2018-01-25T01:17:34.557Z,10.70
2018-01-25T01:20:02.254Z,10.80
2018-01-25T01:22:29.838Z,10.80
2018-01-25T01:24:57.482Z,11.00
2018-01-25T01:27:25.079Z,11.20
2018-01-25T01:29:52.709Z,11.10
2018-01-25T01:32:20.272Z,11.00
2018-01-25T01:34:47.854Z,11.00
2018-01-25T01:37:15.423Z,11.30
2018-01-25T01:39:43.026Z,11.40
2018-01-25T01:42:10.571Z,11.40
2018-01-25T01:44:38.170Z,11.40
2018-01-25T01:47:05.737Z,11.40
2018-01-25T01:49:33.327Z,11.40
2018-01-25T01:52:00.910Z,11.30
2018-01-25T01:54:28.469Z,11.30
2018-01-25T01:56:56.066Z,11.50
2018-01-25T01:59:23.691Z,11.80
2018-01-25T02:01:51.270Z,12.00
2018-01-25T02:04:18.895Z,11.90
2018-01-25T02:06:46.487Z,11.90
2018-01-25T02:09:14.066Z,12.00
2018-01-25T02:11:41.669Z,12.20
2018-01-25T02:14:09.246Z,12.20
2018-01-25T02:16:36.828Z,12.20
2018-01-25T02:19:04.407Z,12.30
2018-01-25T02:21:31.999Z,12.30
2018-01-25T02:23:59.841Z,12.30
2018-01-25T02:26:27.447Z,12.40
2018-01-25T02:28:55.031Z,12.50
2018-01-25T02:31:22.656Z,12.50
2018-01-25T02:33:50.245Z,12.50
2018-01-25T02:36:17.867Z,12.50
2018-01-25T02:38:45.441Z,12.40
2018-01-25T02:41:13.045Z,12.40
2018-01-25T02:43:40.658Z,12.30
2018-01-25T02:46:08.244Z,12.40
2018-01-25T02:48:35.813Z,12.40
2018-01-25T02:51:03.625Z,12.40
2018-01-25T02:53:31.203Z,12.50
2018-01-25T02:55:58.860Z,12.50
2018-01-25T02:58:26.447Z,12.60
2018-01-25T03:00:54.055Z,12.50
2018-01-25T03:03:21.659Z,12.60
2018-01-25T03:05:49.568Z,12.60
2018-01-25T03:08:17.178Z,12.60
2018-01-25T03:10:45.131Z,12.50
2018-01-25T03:13:12.759Z,12.40
2018-01-25T03:15:40.341Z,12.40
2018-01-25T03:18:07.944Z,12.30
2018-01-25T03:20:35.559Z,12.20
2018-01-25T03:23:03.182Z,12.20
2018-01-25T03:25:30.750Z,12.10
2018-01-25T03:27:58.347Z,12.10
2018-01-25T03:30:25.951Z,12.10
2018-01-25T03:32:53.930Z,12.20
2018-01-25T03:35:21.550Z,12.20
2018-01-25T03:37:49.198Z,12.10
2018-01-25T03:40:16.786Z,12.10
2018-01-25T03:42:44.409Z,12.10
2018-01-25T03:45:11.967Z,12.10
2018-01-25T03:47:39.545Z,12.10
2018-01-25T03:50:07.119Z,12.10
2018-01-25T03:52:34.946Z,12.20
2018-01-25T03:55:02.550Z,12.20
2018-01-25T03:57:30.148Z,12.30
2018-01-25T03:59:57.761Z,12.30
2018-01-25T04:02:25.373Z,12.30
2018-01-25T04:04:52.954Z,12.40
2018-01-25T04:07:20.574Z,12.40
2018-01-25T04:09:48.193Z,12.40
2018-01-25T04:12:15.783Z,12.30
2018-01-25T04:14:43.354Z,12.30
2018-01-25T04:17:10.937Z,12.30
2018-01-25T04:19:38.596Z,12.20
2018-01-25T04:22:06.226Z,12.20
2018-01-25T04:24:33.803Z,12.20
2018-01-25T04:27:01.391Z,12.20
2018-01-25T04:29:29.021Z,12.20
2018-01-25T04:31:56.618Z,12.30
2018-01-25T04:34:24.356Z,12.30
2018-01-25T04:36:51.938Z,12.30
2018-01-25T04:39:19.523Z,12.30
2018-01-25T04:41:47.474Z,12.30
2018-01-25T04:44:15.078Z,12.30
2018-01-25T04:46:42.644Z,12.40
2018-01-25T04:49:10.224Z,12.40
2018-01-25T04:51:37.786Z,12.50
2018-01-25T04:54:05.378Z,12.50
2018-01-25T04:56:32.972Z,12.50
2018-01-25T04:59:00.585Z,12.50
2018-01-25T05:01:28.191Z,12.50
2018-01-25T05:03:56.142Z,12.50
2018-01-25T05:06:23.677Z,12.50
2018-01-25T05:08:51.463Z,12.50
2018-01-25T05:11:19.417Z,12.50
2018-01-25T05:13:47.023Z,12.60
2018-01-25T05:16:14.611Z,12.60
2018-01-25T05:18:42.220Z,12.60
2018-01-25T05:21:09.819Z,12.70
2018-01-25T05:23:37.460Z,12.70
2018-01-25T05:26:05.040Z,12.70
2018-01-25T05:28:32.634Z,12.70
2018-01-25T05:31:00.626Z,12.80
2018-01-25T05:33:28.199Z,12.80
2018-01-25T05:35:55.778Z,12.70
2018-01-25T05:38:23.374Z,12.70
2018-01-25T05:40:51.317Z,12.70
2018-01-25T05:43:18.993Z,12.70
2018-01-25T05:45:46.710Z,12.60
2018-01-25T05:48:14.315Z,12.60
2018-01-25T05:50:41.945Z,12.60
2018-01-25T05:53:09.566Z,12.60
2018-01-25T05:55:37.937Z,12.70
2018-01-25T05:58:05.583Z,12.80
2018-01-25T06:00:33.167Z,12.80
2018-01-25T06:03:00.782Z,12.80
2018-01-25T06:05:29.121Z,12.90
2018-01-25T06:07:56.706Z,12.90
2018-01-25T06:10:24.346Z,13.00
2018-01-25T06:12:52.314Z,13.00
2018-01-25T06:15:19.913Z,13.00
2018-01-25T06:17:47.526Z,13.00
2018-01-25T06:20:15.138Z,13.00
2018-01-25T06:22:42.731Z,13.00
2018-01-25T06:25:10.347Z,13.00
2018-01-25T06:27:37.932Z,13.00
2018-01-25T06:30:05.533Z,13.00
2018-01-25T06:32:33.128Z,13.00
2018-01-25T06:35:00.769Z,13.00
2018-01-25T06:37:28.362Z,13.00
2018-01-25T06:39:56.299Z,13.00
2018-01-25T06:42:23.902Z,13.00
2018-01-25T06:44:51.504Z,13.00
2018-01-25T06:47:19.558Z,13.00
2018-01-25T06:49:47.150Z,13.00
2018-01-25T06:52:14.707Z,13.00
2018-01-25T06:54:42.346Z,12.90
2018-01-25T06:57:09.915Z,12.90
2018-01-25T06:59:37.751Z,12.90
2018-01-25T07:02:05.324Z,12.90
2018-01-25T07:04:32.944Z,12.80
2018-01-25T07:07:00.570Z,12.90
2018-01-25T07:09:28.175Z,12.90
2018-01-25T07:11:55.801Z,12.90
2018-01-25T07:14:23.368Z,12.90
2018-01-25T07:16:51.272Z,12.90
2018-01-25T07:19:18.834Z,12.90
2018-01-25T07:21:46.450Z,12.90
2018-01-25T07:24:14.286Z,12.90
2018-01-25T07:26:41.909Z,12.80
2018-01-25T07:29:09.467Z,12.80
2018-01-25T07:31:37.061Z,12.80
2018-01-25T07:34:04.689Z,12.70
2018-01-25T07:36:32.258Z,12.70
2018-01-25T07:38:59.836Z,12.80
2018-01-25T07:41:27.470Z,12.80
2018-01-25T07:43:55.047Z,12.70
2018-01-25T07:46:22.650Z,12.70
2018-01-25T07:48:50.796Z,12.70
2018-01-25T07:51:18.462Z,12.70
2018-01-25T07:53:46.071Z,12.70
2018-01-25T07:56:13.723Z,12.80
2018-01-25T07:58:41.266Z,12.90
2018-01-25T08:01:08.915Z,12.90
2018-01-25T08:03:36.515Z,12.90
2018-01-25T08:06:04.889Z,12.90
2018-01-25T08:08:32.470Z,13.00
2018-01-25T08:11:00.109Z,13.00
2018-01-25T08:13:33.405Z,13.00
2018-01-25T08:16:06.648Z,12.90
2018-01-25T08:18:34.438Z,13.00
2018-01-25T08:21:02.066Z,12.90
2018-01-25T08:23:29.654Z,12.90
2018-01-25T08:25:57.252Z,12.90
2018-01-25T08:28:24.838Z,12.90
2018-01-25T08:30:52.417Z,12.90
2018-01-25T08:33:20.417Z,13.00
2018-01-25T08:35:47.989Z,13.00
2018-01-25T08:38:15.591Z,13.00
2018-01-25T08:40:43.213Z,13.00
2018-01-25T08:43:10.821Z,13.10
2018-01-25T08:45:38.418Z,13.10
2018-01-25T08:48:06.015Z,13.20
2018-01-25T08:50:33.594Z,13.20
2018-01-25T08:53:01.588Z,13.40
2018-01-25T08:55:29.165Z,13.40
2018-01-25T08:57:56.789Z,13.50
2018-01-25T09:00:24.380Z,13.60
2018-01-25T09:02:51.983Z,13.60
2018-01-25T09:05:19.979Z,13.80
2018-01-25T09:07:47.557Z,13.80
2018-01-25T09:10:15.462Z,13.90
2018-01-25T09:12:43.099Z,14.00
2018-01-25T09:15:10.718Z,14.00
2018-01-25T09:17:38.335Z,14.10
2018-01-25T09:20:05.918Z,14.20
2018-01-25T09:22:33.549Z,14.30
2018-01-25T09:25:01.149Z,14.30
2018-01-25T09:27:28.771Z,14.30
2018-01-25T09:29:56.402Z,14.40
2018-01-25T09:32:24.048Z,14.40
2018-01-25T09:34:51.620Z,14.50
2018-01-25T09:37:19.267Z,14.50
2018-01-25T09:39:46.814Z,14.40
2018-01-25T09:42:14.410Z,14.40
2018-01-25T09:44:42.034Z,14.40
2018-01-25T09:47:09.619Z,14.30
2018-01-25T09:49:37.217Z,14.20
2018-01-25T09:52:04.838Z,14.10
2018-01-25T09:54:32.443Z,14.10
2018-01-25T09:57:00.451Z,14.20
2018-01-25T09:59:28.092Z,14.10
2018-01-25T10:01:55.669Z,14.20
2018-01-25T10:04:23.262Z,14.20
2018-01-25T10:06:50.831Z,14.10
2018-01-25T10:09:18.423Z,14.10
2018-01-25T10:11:46.369Z,14.20
2018-01-25T10:14:13.967Z,14.20
2018-01-25T10:16:41.528Z,14.20
2018-01-25T10:19:09.152Z,14.10
2018-01-25T10:21:37.174Z,14.10
2018-01-25T10:24:04.759Z,14.10
2018-01-25T10:26:32.391Z,14.20
2018-01-25T10:28:59.974Z,14.30
2018-01-25T10:31:27.575Z,14.30
2018-01-25T10:33:55.165Z,14.30
2018-01-25T10:36:22.738Z,14.30
2018-01-25T10:38:50.326Z,14.20
2018-01-25T10:41:18.365Z,14.10
2018-01-25T10:43:45.966Z,14.10
2018-01-25T10:46:13.986Z,13.80
2018-01-25T10:48:41.591Z,13.90
2018-01-25T10:51:09.235Z,13.70
2018-01-25T10:53:36.778Z,13.70
2018-01-25T10:56:04.383Z,13.90
2018-01-25T10:58:31.967Z,14.00
2018-01-25T11:01:05.249Z,14.10
2018-01-25T11:03:32.792Z,14.00
2018-01-25T11:06:00.386Z,13.80
2018-01-25T11:08:27.998Z,13.70
2018-01-25T11:10:55.609Z,13.70
2018-01-25T11:13:23.174Z,13.70
2018-01-25T11:15:50.799Z,13.80
2018-01-25T11:18:18.350Z,13.90
2018-01-25T11:20:45.929Z,13.90
2018-01-25T11:23:13.523Z,13.80
2018-01-25T11:25:41.152Z,13.70
2018-01-25T11:28:08.734Z,13.60
2018-01-25T11:30:36.335Z,13.70
2018-01-25T11:33:03.923Z,13.80
2018-01-25T11:35:31.496Z,13.90
2018-01-25T11:37:59.121Z,13.90
2018-01-25T11:40:26.744Z,14.00
2018-01-25T11:42:54.370Z,14.00
2018-01-25T11:45:21.951Z,14.10
2018-01-25T11:47:49.584Z,14.20
2018-01-25T11:50:17.154Z,14.40
2018-01-25T11:52:44.784Z,14.70
2018-01-25T11:55:12.386Z,14.90
2018-01-25T11:57:40.020Z,15.10
2018-01-25T12:00:07.581Z,15.10
2018-01-25T12:02:35.192Z,15.10
2018-01-25T12:05:03.170Z,14.90
2018-01-25T12:07:31.163Z,14.80
2018-01-25T12:09:58.731Z,14.80
2018-01-25T12:12:26.348Z,14.80
2018-01-25T12:14:54.010Z,15.00
2018-01-25T12:17:22.014Z,14.80
2018-01-25T12:19:49.567Z,14.80
2018-01-25T12:22:17.186Z,15.00
2018-01-25T12:24:44.807Z,15.30
2018-01-25T12:27:12.389Z,15.60
2018-01-25T12:29:39.955Z,15.80
2018-01-25T12:32:07.550Z,15.80
2018-01-25T12:34:35.135Z,15.40
2018-01-25T12:37:02.733Z,15.40
2018-01-25T12:39:30.293Z,15.50
2018-01-25T12:41:58.274Z,15.30
2018-01-25T12:44:25.829Z,15.30
2018-01-25T12:46:53.837Z,15.30
2018-01-25T12:49:21.482Z,15.30
2018-01-25T12:51:49.046Z,15.10
2018-01-25T12:54:16.677Z,15.00
2018-01-25T12:56:44.663Z,15.00
2018-01-25T12:59:12.251Z,15.00
2018-01-25T13:01:39.820Z,15.00
2018-01-25T13:04:07.448Z,15.00
2018-01-25T13:06:35.066Z,15.00
2018-01-25T13:09:02.690Z,15.00
2018-01-25T13:11:30.266Z,15.10
2018-01-25T13:13:57.878Z,15.30
2018-01-25T13:16:25.509Z,15.20
2018-01-25T13:18:53.104Z,15.20
2018-01-25T13:21:20.673Z,15.40
2018-01-25T13:23:48.257Z,15.60
2018-01-25T13:26:15.828Z,15.80
2018-01-25T13:28:44.708Z,15.90
2018-01-25T13:31:12.313Z,16.00
2018-01-25T13:33:42.850Z,16.00
2018-01-25T13:36:10.428Z,16.20
2018-01-25T13:38:38.063Z,16.30
2018-01-25T13:41:05.697Z,16.10
2018-01-25T13:43:33.285Z,16.20
2018-01-25T13:46:00.837Z,16.20
2018-01-25T13:48:28.455Z,16.00
2018-01-25T13:50:56.064Z,15.90
2018-01-25T13:53:23.698Z,16.00
2018-01-25T13:55:51.682Z,15.60
2018-01-25T13:58:19.303Z,15.60
2018-01-25T14:00:46.935Z,15.50
2018-01-25T14:03:14.535Z,15.50
2018-01-25T14:05:42.162Z,15.60
2018-01-25T14:08:09.720Z,15.50
2018-01-25T14:10:37.310Z,15.50
2018-01-25T14:13:04.856Z,15.40
2018-01-25T14:15:32.469Z,15.40
2018-01-25T14:18:00.032Z,15.20
2018-01-25T14:20:27.625Z,15.10
2018-01-25T14:22:55.199Z,15.20
2018-01-25T14:25:22.830Z,15.20
2018-01-25T14:27:50.383Z,15.20
2018-01-25T14:30:17.975Z,15.30
2018-01-25T14:32:45.587Z,15.30
2018-01-25T14:35:13.209Z,15.10
2018-01-25T14:37:41.174Z,14.90
2018-01-25T14:40:09.227Z,14.80
2018-01-25T14:42:36.840Z,14.80
2018-01-25T14:45:04.435Z,14.80
2018-01-25T14:47:32.018Z,14.90
2018-01-25T14:49:59.638Z,14.80
2018-01-25T14:52:27.211Z,14.70
2018-01-25T14:54:54.798Z,14.70
2018-01-25T14:57:22.394Z,14.70
2018-01-25T14:59:49.995Z,14.70
2018-01-25T15:02:17.607Z,14.70
2018-01-25T15:04:45.235Z,14.70
2018-01-25T15:07:12.879Z,14.70
2018-01-25T15:09:40.488Z,14.60
2018-01-25T15:12:08.137Z,14.40
2018-01-25T15:14:37.703Z,14.40
2018-01-25T15:17:11.518Z,14.30
2018-01-25T15:19:39.112Z,14.30
2018-01-25T15:22:06.774Z,14.20
2018-01-25T15:24:34.371Z,14.10
2018-01-25T15:27:02.488Z,14.10
2018-01-25T15:29:30.105Z,13.90
2018-01-25T15:31:57.720Z,13.90
2018-01-25T15:34:25.300Z,13.90
2018-01-25T15:36:52.882Z,13.80
2018-01-25T15:39:20.447Z,13.70
2018-01-25T15:41:48.093Z,13.60
2018-01-25T15:44:15.714Z,13.50
2018-01-25T15:46:43.310Z,13.40
2018-01-25T15:49:10.899Z,13.30
2018-01-25T15:51:38.527Z,13.20
2018-01-25T15:54:06.111Z,13.10
2018-01-25T15:56:33.686Z,13.00
2018-01-25T15:59:01.245Z,12.90
2018-01-25T16:01:29.243Z,12.80
2018-01-25T16:03:56.795Z,12.80
2018-01-25T16:06:24.389Z,12.70
2018-01-25T16:08:51.995Z,12.70
2018-01-25T16:11:19.576Z,12.60
2018-01-25T16:13:47.161Z,12.60
2018-01-25T16:16:14.710Z,12.50
2018-01-25T16:18:42.298Z,12.40
2018-01-25T16:21:10.064Z,12.40
2018-01-25T16:23:37.897Z,12.20
2018-01-25T16:26:05.641Z,12.10
2018-01-25T16:28:33.394Z,12.10
2018-01-25T16:31:00.961Z,12.00
2018-01-25T16:33:28.599Z,12.00
2018-01-25T16:35:56.212Z,11.90
2018-01-25T16:38:23.812Z,11.90
2018-01-25T16:40:51.743Z,11.80
2018-01-25T16:43:19.344Z,11.80
2018-01-25T16:45:46.901Z,11.70
2018-01-25T16:48:14.654Z,11.70
2018-01-25T16:50:53.349Z,11.60
2018-01-25T16:53:20.931Z,11.60
2018-01-25T16:55:48.560Z,11.50
2018-01-25T16:58:16.171Z,11.40
2018-01-25T17:00:43.775Z,11.30
2018-01-25T17:03:16.486Z,11.30
2018-01-25T17:05:44.531Z,11.30
2018-01-25T17:08:20.236Z,11.30
2018-01-25T17:10:53.454Z,11.20
2018-01-25T17:13:21.125Z,11.20
2018-01-25T17:15:48.728Z,11.10
2018-01-25T17:18:16.382Z,11.00
2018-01-25T17:20:58.074Z,11.00
2018-01-25T17:23:26.235Z,10.90
2018-01-25T17:25:53.830Z,10.90
2018-01-25T17:28:21.477Z,10.90
2018-01-25T17:30:49.079Z,10.80
2018-01-25T17:33:16.734Z,10.80
2018-01-25T17:35:44.311Z,10.70
2018-01-25T17:38:11.957Z,10.60
2018-01-25T17:40:39.579Z,10.60
2018-01-25T17:43:07.135Z,10.60
2018-01-25T17:45:34.796Z,10.50
2018-01-25T17:48:02.465Z,10.50
2018-01-25T17:50:30.101Z,10.50
2018-01-25T17:52:57.721Z,10.50
2018-01-25T17:55:25.378Z,10.40
2018-01-25T17:57:52.986Z,10.40
2018-01-25T18:00:20.562Z,10.40
2018-01-25T18:02:48.173Z,10.40
2018-01-25T18:05:15.830Z,10.30
2018-01-25T18:07:43.494Z,10.20
2018-01-25T18:10:11.148Z,10.20
2018-01-25T18:12:38.819Z,10.10
2018-01-25T18:15:06.453Z,10.00
2018-01-25T18:17:34.103Z,10.00
2018-01-25T18:20:01.725Z,10.00
2018-01-25T18:22:29.359Z,9.90
2018-01-25T18:24:57.016Z,9.90
2018-01-25T18:27:24.684Z,9.90
2018-01-25T18:29:52.334Z,9.90
2018-01-25T18:32:19.937Z,9.90
2018-01-25T18:34:47.632Z,9.80
2018-01-25T18:37:15.249Z,9.80
2018-01-25T18:39:42.902Z,9.70
2018-01-25T18:42:10.610Z,9.60
2018-01-25T18:44:38.190Z,9.60
2018-01-25T18:47:05.819Z,9.50
2018-01-25T18:49:33.433Z,9.50
2018-01-25T18:52:01.088Z,9.40
2018-01-25T18:54:29.041Z,9.50
2018-01-25T18:56:56.690Z,9.50
2018-01-25T18:59:24.330Z,9.40
2018-01-25T19:01:51.964Z,9.40
2018-01-25T19:04:19.620Z,9.40
2018-01-25T19:06:47.254Z,9.40
2018-01-25T19:09:14.835Z,9.40
2018-01-25T19:11:42.478Z,9.40
2018-01-25T19:14:10.419Z,9.30
2018-01-25T19:16:38.063Z,9.30
2018-01-25T19:19:05.671Z,9.30
2018-01-25T19:21:33.312Z,9.30
2018-01-25T19:24:00.912Z,9.20
2018-01-25T19:26:28.530Z,9.20
2018-01-25T19:28:56.162Z,9.20
2018-01-25T19:31:23.793Z,9.20
2018-01-25T19:33:51.987Z,9.20
2018-01-25T19:36:19.618Z,9.20
2018-01-25T19:38:47.261Z,9.20
2018-01-25T19:41:14.834Z,9.20
2018-01-25T19:43:42.464Z,9.20
2018-01-25T19:46:10.109Z,9.30
2018-01-25T19:48:37.743Z,9.30
2018-01-25T19:51:05.392Z,9.30
2018-01-25T19:53:33.017Z,9.30
2018-01-25T19:56:00.638Z,9.40
2018-01-25T19:58:28.283Z,9.30
2018-01-25T20:00:55.864Z,9.30
2018-01-25T20:03:23.500Z,9.30
2018-01-25T20:05:51.134Z,9.30
2018-01-25T20:08:18.764Z,9.10
2018-01-25T20:10:46.414Z,9.10
2018-01-25T20:13:14.044Z,9.00
2018-01-25T20:15:41.696Z,9.00
2018-01-25T20:18:09.331Z,9.00
2018-01-25T20:20:39.006Z,9.10
2018-01-25T20:23:06.649Z,9.10
2018-01-25T20:25:34.257Z,9.20
2018-01-25T20:28:01.863Z,9.20
2018-01-25T20:30:29.523Z,9.20
2018-01-25T20:32:57.202Z,9.10
2018-01-25T20:35:24.906Z,9.10
2018-01-25T20:37:54.476Z,9.10
2018-01-25T20:40:22.118Z,9.10
2018-01-25T20:42:49.689Z,9.20
2018-01-25T20:45:17.277Z,9.20
2018-01-25T20:47:44.894Z,9.20
2018-01-25T20:50:12.453Z,9.20
2018-01-25T20:52:40.047Z,9.10
2018-01-25T20:55:07.651Z,9.10
2018-01-25T20:57:55.309Z,9.10
2018-01-25T21:00:22.938Z,9.10
2018-01-25T21:02:50.551Z,9.10
2018-01-25T21:05:18.219Z,9.20
2018-01-25T21:07:45.867Z,9.20
2018-01-25T21:10:13.908Z,9.20
2018-01-25T21:12:41.530Z,9.20
2018-01-25T21:15:09.209Z,9.20
2018-01-25T21:17:36.825Z,9.20
2018-01-25T21:20:04.856Z,9.20
2018-01-25T21:22:32.495Z,9.20
2018-01-25T21:25:00.159Z,9.20
2018-01-25T21:27:27.777Z,9.30
2018-01-25T21:29:55.399Z,9.30
2018-01-25T21:32:23.002Z,9.40
2018-01-25T21:34:51.512Z,9.40
2018-01-25T21:37:19.133Z,9.40
2018-01-25T21:39:46.766Z,9.30
2018-01-25T21:42:14.399Z,9.30
2018-01-25T21:44:41.999Z,9.30
2018-01-25T21:47:10.062Z,9.20
2018-01-25T21:49:37.703Z,9.20
2018-01-25T21:52:05.350Z,9.10
2018-01-25T21:54:32.996Z,9.10
2018-01-25T21:57:00.600Z,9.10
2018-01-25T21:59:28.248Z,9.20
2018-01-25T22:01:55.887Z,9.20
2018-01-25T22:04:23.483Z,9.30
2018-01-25T22:06:51.091Z,9.30
2018-01-25T22:09:18.746Z,9.40
2018-01-25T22:11:46.437Z,9.50
2018-01-25T22:14:14.026Z,9.60
2018-01-25T22:16:41.690Z,9.60
2018-01-25T22:19:09.291Z,9.70
2018-01-25T22:21:36.845Z,9.80
2018-01-25T22:24:04.443Z,9.80
2018-01-25T22:26:32.079Z,9.80
2018-01-25T22:28:59.673Z,9.80
2018-01-25T22:31:27.297Z,9.90
2018-01-25T22:33:54.939Z,9.90
2018-01-25T22:36:22.590Z,9.90
2018-01-25T22:38:50.197Z,9.90
2018-01-25T22:41:17.831Z,9.90
2018-01-25T22:43:45.419Z,9.90
2018-01-25T22:46:13.099Z,9.90
2018-01-25T22:48:40.750Z,9.90
2018-01-25T22:51:08.316Z,9.90
2018-01-25T22:53:35.882Z,9.90
2018-01-25T22:56:03.906Z,9.90
2018-01-25T22:58:31.520Z,9.90
2018-01-25T23:00:59.142Z,9.90
2018-01-25T23:03:26.770Z,9.90
2018-01-25T23:05:54.410Z,9.90
2018-01-25T23:08:22.023Z,9.90
2018-01-25T23:10:49.635Z,9.90
2018-01-25T23:13:17.221Z,9.90
2018-01-25T23:15:44.876Z,9.90
2018-01-25T23:18:12.465Z,9.90
2018-01-25T23:20:40.108Z,9.80
2018-01-25T23:23:07.687Z,9.90
2018-01-25T23:25:35.900Z,9.80
2018-01-25T23:28:03.513Z,9.80
2018-01-25T23:30:31.148Z,9.80
2018-01-25T23:32:58.725Z,9.90
2018-01-25T23:35:26.317Z,9.90
2018-01-25T23:37:53.867Z,9.80
2018-01-25T23:40:21.809Z,9.90
2018-01-25T23:42:49.397Z,9.90
2018-01-25T23:45:16.960Z,9.90
2018-01-25T23:47:44.582Z,9.90
2018-01-25T23:50:12.140Z,9.90
2018-01-25T23:52:39.734Z,9.90
2018-01-25T23:55:07.335Z,9.90
2018-01-25T23:57:34.917Z,9.90
